Portada
METAR-TAF:

METAR-TAF

Aeroports :

Kharg, Iran

latitud: 29-15-34N, longitud: 50-19-24E, altitud: 5 m

Observació

L'informe es va fer fa 56 minuts, a les 02:00 UTC
Vent calma
Temperatura 30°C
Humitat 94%
Pressió 1002 hPa
Visibilitat: 5000 m
boirina

METAR: OIBQ 210200Z 00000KT 5000 BR NSC 30/29 Q1002

Hora: 07:26 (02:56 UTC)


TAF: manca

Observacions i pronòstics meteorològics de més de 4000 aeroports (METAR i TAF).

Les estacions disponibles són els punts grocs i vermells al mapa.

Posi el ratolí al punt desitjat per veure el nom de l'estació.

Feu clic per veure les observacions i els pronòstics meteorològics.

Per canviar el mapa: feu clic els botons verds amb una creu de color negre per apropar; al botó verd amb un guió per allunyar la imatge; o en les fletxes verdes per a mapes adjacents.


METAR-TAF: